createdAt,value
2022-08-06T00:00:27.007Z,99779.81
2022-08-06T00:02:59.288Z,99781.59
2022-08-06T00:05:35.277Z,99781.13
2022-08-06T00:08:07.432Z,99783.79
2022-08-06T00:10:40.984Z,99786.03
2022-08-06T00:13:15.942Z,99787.77
2022-08-06T00:16:09.661Z,99787.34
2022-08-06T00:18:24.073Z,99786.89
2022-08-06T00:20:57.897Z,99784.64
2022-08-06T00:23:35.042Z,99785.97
2022-08-06T00:26:07.301Z,99783.28
2022-08-06T00:28:41.707Z,99790.80
2022-08-06T00:31:14.494Z,99789.05
2022-08-06T00:33:57.407Z,99797.45
2022-08-06T00:36:25.088Z,99793.45
2022-08-06T00:38:56.741Z,99797.91
2022-08-06T00:41:41.835Z,99787.27
2022-08-06T00:44:06.236Z,99785.06
2022-08-06T00:46:40.393Z,99791.70
2022-08-06T00:49:13.589Z,99784.60
2022-08-06T00:51:51.107Z,99792.58
2022-08-06T00:54:27.455Z,99792.58
2022-08-06T00:56:57.731Z,99780.62
2022-08-06T00:59:35.324Z,99781.08
2022-08-06T01:02:10.039Z,99779.29
2022-08-06T01:04:41.245Z,99781.48
2022-08-06T01:07:14.562Z,99775.75
2022-08-06T01:09:58.430Z,99777.08
2022-08-06T01:12:32.019Z,99776.17
2022-08-06T01:15:02.344Z,99773.51
2022-08-06T01:17:50.397Z,99774.42
2022-08-06T01:21:58.578Z,99780.63
2022-08-06T01:24:25.898Z,99780.18
2022-08-06T01:27:44.685Z,99777.98
2022-08-06T01:30:27.230Z,99774.86
2022-08-06T01:33:10.572Z,99772.20
2022-08-06T01:35:54.894Z,99774.86
2022-08-06T01:38:57.196Z,99771.78
2022-08-06T01:41:58.355Z,99771.33
2022-08-06T01:44:18.367Z,99775.78
2022-08-06T01:46:56.781Z,99774.91
2022-08-06T01:50:00.251Z,99774.92
2022-08-06T01:52:14.842Z,99778.03
2022-08-06T01:54:46.622Z,99767.81
2022-08-06T01:57:32.921Z,99771.80
2022-08-06T01:59:59.164Z,99774.92
2022-08-06T02:02:33.005Z,99772.71
2022-08-06T02:05:09.226Z,99774.92
2022-08-06T02:08:39.113Z,99782.91
2022-08-06T02:10:23.995Z,99784.70
2022-08-06T02:13:02.738Z,99786.45
2022-08-06T02:15:56.495Z,99787.35
2022-08-06T02:18:09.129Z,99780.24
2022-08-06T02:20:48.390Z,99789.09
2022-08-06T02:23:25.593Z,99789.55
2022-08-06T02:26:00.925Z,99782.03
2022-08-06T02:28:36.746Z,99795.76
2022-08-06T02:31:11.271Z,99793.09
2022-08-06T02:34:02.386Z,99791.34
2022-08-06T02:36:27.322Z,99799.73
2022-08-06T02:39:04.868Z,99796.66
2022-08-06T02:42:04.475Z,99794.41
2022-08-06T02:45:12.976Z,99794.00
2022-08-06T02:48:05.312Z,99798.41
2022-08-06T02:50:44.080Z,99802.41
2022-08-06T02:53:44.822Z,99806.84
2022-08-06T02:56:13.628Z,99810.84
2022-08-06T02:58:57.025Z,99815.28
2022-08-06T03:01:43.036Z,99828.58
2022-08-06T03:04:09.681Z,99836.56
2022-08-06T03:06:45.059Z,99842.31
2022-08-06T03:09:18.699Z,99848.97
2022-08-06T03:11:52.944Z,99844.97
2022-08-06T03:14:38.715Z,99843.64
2022-08-06T03:17:03.662Z,99850.30
2022-08-06T03:19:56.978Z,99844.11
2022-08-06T03:22:18.556Z,99842.78
2022-08-06T03:24:48.688Z,99848.98
2022-08-06T03:27:23.476Z,99848.58
2022-08-06T03:29:58.525Z,99856.98
2022-08-06T03:32:52.499Z,99859.63
2022-08-06T03:35:08.199Z,99851.23
2022-08-06T03:37:45.587Z,99857.88
2022-08-06T03:40:19.453Z,99858.31
2022-08-06T03:42:53.284Z,99854.77
2022-08-06T03:45:45.536Z,99849.91
2022-08-06T03:48:07.735Z,99848.99
2022-08-06T03:50:45.865Z,99857.88
2022-08-06T03:53:27.316Z,99862.75
2022-08-06T03:56:02.105Z,99855.64
2022-08-06T03:58:36.040Z,99860.09
2022-08-06T04:01:16.919Z,99865.84
2022-08-06T04:03:51.664Z,99858.33
2022-08-06T04:06:27.501Z,99860.55
2022-08-06T04:09:02.533Z,99862.80
2022-08-06T04:11:36.109Z,99859.24
2022-08-06T04:14:11.895Z,99858.38
2022-08-06T04:16:45.060Z,99855.27
2022-08-06T04:19:20.525Z,99856.61
2022-08-06T04:23:06.302Z,99857.95
2022-08-06T04:24:30.585Z,99855.30
2022-08-06T04:27:09.269Z,99866.86
2022-08-06T04:29:51.063Z,99864.16
2022-08-06T04:32:20.054Z,99875.25
2022-08-06T04:36:07.526Z,99875.25
2022-08-06T04:37:30.550Z,99887.20
2022-08-06T04:40:05.187Z,99887.64
2022-08-06T04:42:39.933Z,99880.09
2022-08-06T04:46:16.111Z,99880.98
2022-08-06T04:47:49.713Z,99885.84
2022-08-06T04:50:23.168Z,99884.49
2022-08-06T04:53:07.698Z,99887.59
2022-08-06T04:55:43.600Z,99888.02
2022-08-06T04:58:20.836Z,99889.34
2022-08-06T05:00:59.997Z,99888.92
2022-08-06T05:04:06.312Z,99892.02
2022-08-06T05:06:12.874Z,99891.14
2022-08-06T05:08:52.205Z,99896.48
2022-08-06T05:11:30.367Z,99888.45
2022-08-06T05:14:08.156Z,99888.45
2022-08-06T05:16:52.529Z,99886.66
2022-08-06T05:19:39.147Z,99891.58
2022-08-06T05:22:19.791Z,99895.13
2022-08-06T05:25:00.825Z,99900.00
2022-08-06T05:27:24.131Z,99894.67
2022-08-06T05:29:57.850Z,99902.25
2022-08-06T05:32:32.411Z,99903.13
2022-08-06T05:35:07.456Z,99895.98
2022-08-06T05:38:01.241Z,99896.43
2022-08-06T05:40:15.358Z,99896.42
2022-08-06T05:42:57.710Z,99897.73
2022-08-06T05:45:26.456Z,99894.13
2022-08-06T05:48:01.422Z,99892.77
2022-08-06T05:50:39.371Z,99884.27
2022-08-06T05:53:21.562Z,99890.02
2022-08-06T05:55:59.458Z,99887.75
2022-08-06T05:58:40.124Z,99884.13
2022-08-06T06:01:14.750Z,99887.58
2022-08-06T06:03:48.901Z,99890.19
2022-08-06T06:06:22.069Z,99887.45
2022-08-06T06:08:58.393Z,99881.14
2022-08-06T06:11:55.265Z,99881.94
2022-08-06T06:14:07.850Z,99878.80
2022-08-06T06:16:52.805Z,99873.81
2022-08-06T06:20:00.859Z,99875.57
2022-08-06T06:22:46.798Z,99882.64
2022-08-06T06:25:33.886Z,99879.94
2022-08-06T06:28:29.243Z,99880.37
2022-08-06T06:32:04.083Z,99882.56
2022-08-06T06:34:25.705Z,99878.98
2022-08-06T06:37:21.916Z,99879.84
2022-08-06T06:40:14.345Z,99878.51
2022-08-06T06:42:54.604Z,99886.99
2022-08-06T06:46:05.937Z,99882.98
2022-08-06T06:48:58.746Z,99877.61
2022-08-06T06:51:57.358Z,99881.52
2022-08-06T06:54:35.627Z,99879.13
2022-08-06T06:57:17.763Z,99875.42
2022-08-06T07:00:04.582Z,99874.84
2022-08-06T07:02:31.662Z,99873.80
2022-08-06T07:05:07.677Z,99870.16
2022-08-06T07:07:49.720Z,99871.41
2022-08-06T07:10:18.959Z,99870.01
2022-08-06T07:12:53.619Z,99869.02
2022-08-06T07:15:26.215Z,99862.24
2022-08-06T07:18:24.224Z,99865.70
2022-08-06T07:20:35.996Z,99862.06
2022-08-06T07:24:06.087Z,99864.25
2022-08-06T07:25:54.382Z,99862.33
2022-08-06T07:28:29.133Z,99859.04
2022-08-06T07:31:09.339Z,99855.27
2022-08-06T07:34:01.174Z,99852.77
2022-08-06T07:36:20.863Z,99850.70
2022-08-06T07:38:54.809Z,99844.27
2022-08-06T07:41:31.806Z,99847.60
2022-08-06T07:44:05.873Z,99845.24
2022-08-06T07:46:47.778Z,99839.27
2022-08-06T07:49:31.700Z,99847.16
2022-08-06T07:52:05.574Z,99849.25
2022-08-06T07:54:40.554Z,99842.48
2022-08-06T07:57:19.851Z,99844.61
2022-08-06T07:59:55.285Z,99847.66
2022-08-06T08:02:29.998Z,99842.70
2022-08-06T08:05:20.019Z,99844.48
2022-08-06T08:07:57.332Z,99844.32
2022-08-06T08:10:29.847Z,99839.73
2022-08-06T08:13:03.783Z,99840.50
2022-08-06T08:15:43.219Z,99839.53
2022-08-06T08:18:11.601Z,99838.96
2022-08-06T08:20:52.956Z,99831.75
2022-08-06T08:23:25.369Z,99830.50
2022-08-06T08:26:00.174Z,99832.82
2022-08-06T08:28:34.165Z,99831.58
2022-08-06T08:31:15.817Z,99832.05
2022-08-06T08:33:42.584Z,99832.02
2022-08-06T08:36:17.760Z,99819.36
2022-08-06T08:38:52.337Z,99823.16
2022-08-06T08:41:48.244Z,99821.02
2022-08-06T08:44:09.301Z,99816.23
2022-08-06T08:46:57.431Z,99827.09
2022-08-06T08:49:27.047Z,99821.48
2022-08-06T08:52:02.229Z,99825.37
2022-08-06T08:54:38.100Z,99825.65
2022-08-06T08:58:36.964Z,99825.81
2022-08-06T08:59:59.828Z,99824.70
2022-08-06T09:02:24.337Z,99826.80
2022-08-06T09:04:58.773Z,99834.31
2022-08-06T09:07:35.714Z,99835.06
2022-08-06T09:10:16.411Z,99827.50
2022-08-06T09:12:49.408Z,99828.85
2022-08-06T09:15:22.754Z,99827.06
2022-08-06T09:18:26.407Z,99823.91
2022-08-06T09:20:32.223Z,99834.11
2022-08-06T09:23:07.601Z,99832.77
2022-08-06T09:25:51.222Z,99826.08
2022-08-06T09:28:39.660Z,99820.23
2022-08-06T09:31:31.168Z,99822.36
2022-08-06T09:34:30.840Z,99823.02
2022-08-06T09:36:49.133Z,99816.04
2022-08-06T09:40:00.086Z,99819.81
2022-08-06T09:42:26.187Z,99815.48
2022-08-06T09:45:16.015Z,99814.40
2022-08-06T09:47:59.065Z,99817.37
2022-08-06T09:50:47.627Z,99816.72
2022-08-06T09:53:23.851Z,99818.76
2022-08-06T09:55:58.963Z,99811.94
2022-08-06T09:58:37.639Z,99812.36
2022-08-06T10:01:23.476Z,99814.67
2022-08-06T10:04:06.486Z,99813.38
2022-08-06T10:06:34.466Z,99815.59
2022-08-06T10:09:20.869Z,99810.54
2022-08-06T10:11:50.082Z,99810.31
2022-08-06T10:14:33.597Z,99804.83
2022-08-06T10:17:15.614Z,99806.58
2022-08-06T10:19:52.855Z,99799.30
2022-08-06T10:22:27.179Z,99808.59
2022-08-06T10:25:12.775Z,99811.48
2022-08-06T10:27:39.868Z,99808.02
2022-08-06T10:30:12.550Z,99808.67
2022-08-06T10:33:00.198Z,99803.63
2022-08-06T10:35:34.459Z,99801.36
2022-08-06T10:38:14.738Z,99801.70
2022-08-06T10:40:57.334Z,99801.06
2022-08-06T10:43:22.193Z,99791.00
2022-08-06T10:45:57.229Z,99788.97
2022-08-06T10:49:01.199Z,99779.44
2022-08-06T10:51:07.400Z,99787.14
2022-08-06T10:54:01.028Z,99794.02
2022-08-06T10:56:25.742Z,99794.02
2022-08-06T10:58:56.602Z,99785.80
2022-08-06T11:01:51.314Z,99792.76
2022-08-06T11:04:45.355Z,99783.54
2022-08-06T11:08:09.567Z,99776.98
2022-08-06T11:10:56.632Z,99782.27
2022-08-06T11:13:58.538Z,99783.19
2022-08-06T11:16:34.262Z,99783.67
2022-08-06T11:19:11.346Z,99785.55
2022-08-06T11:22:02.741Z,99779.84
2022-08-06T11:24:25.788Z,99775.45
2022-08-06T11:27:01.758Z,99773.94
2022-08-06T11:29:55.314Z,99775.49
2022-08-06T11:32:20.265Z,99775.85
2022-08-06T11:34:51.475Z,99771.72
2022-08-06T11:38:00.557Z,99775.19
2022-08-06T11:40:20.873Z,99777.05
2022-08-06T11:42:55.080Z,99767.98
2022-08-06T11:46:21.033Z,99760.52
2022-08-06T11:48:12.963Z,99762.58
2022-08-06T11:50:44.119Z,99763.88
2022-08-06T11:53:22.027Z,99752.79
2022-08-06T11:56:10.098Z,99750.55
2022-08-06T11:58:43.146Z,99736.59
2022-08-06T12:01:34.303Z,99736.89
2022-08-06T12:03:52.490Z,99737.86
2022-08-06T12:06:28.771Z,99742.38
2022-08-06T12:09:23.294Z,99751.85
2022-08-06T12:11:51.099Z,99746.56
2022-08-06T12:14:49.104Z,99751.65
2022-08-06T12:17:24.617Z,99740.98
2022-08-06T12:20:01.261Z,99744.43
2022-08-06T12:22:33.495Z,99737.80
2022-08-06T12:25:09.982Z,99737.86
2022-08-06T12:27:50.829Z,99739.15
2022-08-06T12:30:37.101Z,99731.53
2022-08-06T12:33:04.096Z,99745.53
2022-08-06T12:35:41.339Z,99748.25
2022-08-06T12:38:15.172Z,99755.05
2022-08-06T12:41:09.471Z,99756.15
2022-08-06T12:43:56.885Z,99755.83
2022-08-06T12:46:24.465Z,99750.60
2022-08-06T12:49:01.407Z,99754.54
2022-08-06T12:51:34.081Z,99755.44
2022-08-06T12:54:09.176Z,99758.85
2022-08-06T12:56:43.258Z,99752.77
2022-08-06T12:59:23.740Z,99749.67
2022-08-06T13:02:11.341Z,99748.48
2022-08-06T13:04:31.285Z,99750.98
2022-08-06T13:07:09.142Z,99749.07
2022-08-06T13:09:56.164Z,99745.67
2022-08-06T13:12:45.078Z,99742.75
2022-08-06T13:15:10.241Z,99739.34
2022-08-06T13:17:55.257Z,99733.72
2022-08-06T13:20:09.582Z,99733.06
2022-08-06T13:22:54.596Z,99725.70
2022-08-06T13:25:48.346Z,99728.64
2022-08-06T13:28:22.495Z,99729.88
2022-08-06T13:30:57.657Z,99726.64
2022-08-06T13:33:27.400Z,99734.68
2022-08-06T13:36:13.061Z,99730.06
2022-08-06T13:38:46.303Z,99727.24
2022-08-06T13:41:32.546Z,99731.56
2022-08-06T13:44:08.661Z,99729.67
2022-08-06T13:46:51.429Z,99727.81
2022-08-06T13:49:19.814Z,99717.41
2022-08-06T13:51:54.057Z,99721.88
2022-08-06T13:54:32.737Z,99722.68
2022-08-06T13:57:07.684Z,99721.20
2022-08-06T13:59:43.257Z,99727.03
2022-08-06T14:02:17.420Z,99722.50
2022-08-06T14:04:51.036Z,99730.16
2022-08-06T14:07:23.196Z,99732.85
2022-08-06T14:10:09.012Z,99729.73
2022-08-06T14:12:32.783Z,99730.72
2022-08-06T14:15:06.274Z,99733.09
2022-08-06T14:17:42.472Z,99738.95
2022-08-06T14:20:19.011Z,99732.73
2022-08-06T14:22:49.302Z,99729.22
2022-08-06T14:25:23.288Z,99730.21
2022-08-06T14:27:58.322Z,99734.80
2022-08-06T14:30:32.979Z,99732.70
2022-08-06T14:33:18.875Z,99734.11
2022-08-06T14:35:50.490Z,99732.34
2022-08-06T14:38:17.747Z,99736.39
2022-08-06T14:41:10.040Z,99742.72
2022-08-06T14:44:00.521Z,99737.86
2022-08-06T14:46:33.617Z,99735.70
2022-08-06T14:49:13.019Z,99737.98
2022-08-06T14:52:20.217Z,99733.63
2022-08-06T14:54:16.952Z,99738.75
2022-08-06T14:56:52.425Z,99740.16
2022-08-06T14:59:32.381Z,99738.47
2022-08-06T15:02:01.616Z,99741.70
2022-08-06T15:04:34.535Z,99741.87
2022-08-06T15:07:08.632Z,99738.48
2022-08-06T15:10:05.488Z,99739.52
2022-08-06T15:12:29.651Z,99739.69
2022-08-06T15:14:53.084Z,99738.45
2022-08-06T15:17:30.292Z,99736.28
2022-08-06T15:20:00.533Z,99733.64
2022-08-06T15:22:36.183Z,99733.64
2022-08-06T15:25:21.572Z,99737.86
2022-08-06T15:27:48.452Z,99733.05
2022-08-06T15:30:22.930Z,99731.81
2022-08-06T15:32:57.806Z,99730.86
2022-08-06T15:35:38.349Z,99730.72
2022-08-06T15:38:08.121Z,99730.79
2022-08-06T15:40:42.814Z,99735.09
2022-08-06T15:43:15.929Z,99736.25
2022-08-06T15:45:52.383Z,99735.84
2022-08-06T15:48:28.184Z,99736.23
2022-08-06T15:51:28.174Z,99728.89
2022-08-06T15:53:36.946Z,99731.00
2022-08-06T15:56:10.044Z,99729.56
2022-08-06T15:58:43.536Z,99735.72
2022-08-06T16:01:17.106Z,99737.76
2022-08-06T16:03:57.809Z,99734.80
2022-08-06T16:06:28.640Z,99741.27
2022-08-06T16:09:01.075Z,99739.20
2022-08-06T16:11:48.464Z,99737.09
2022-08-06T16:14:11.994Z,99738.48
2022-08-06T16:16:45.002Z,99737.69
2022-08-06T16:19:20.898Z,99744.06
2022-08-06T16:21:53.979Z,99743.47
2022-08-06T16:24:26.719Z,99736.58
2022-08-06T16:27:01.233Z,99739.42
2022-08-06T16:29:35.918Z,99736.95
2022-08-06T16:32:09.112Z,99743.32
2022-08-06T16:34:44.005Z,99743.34
2022-08-06T16:37:28.695Z,99740.67
2022-08-06T16:39:57.275Z,99741.95
2022-08-06T16:42:29.807Z,99745.38
2022-08-06T16:45:11.396Z,99741.31
2022-08-06T16:48:21.619Z,99741.19
2022-08-06T16:50:24.895Z,99746.01
2022-08-06T16:55:24.186Z,99744.31
2022-08-06T16:58:01.230Z,99739.66
2022-08-06T17:03:07.922Z,99749.59
2022-08-06T17:05:46.129Z,99744.50
2022-08-06T17:08:17.110Z,99743.39
2022-08-06T17:10:59.890Z,99743.63
2022-08-06T17:16:00.344Z,99745.27
2022-08-06T17:18:34.865Z,99743.67
2022-08-06T17:21:08.336Z,99746.55
2022-08-06T17:23:41.364Z,99743.57
2022-08-06T17:26:35.143Z,99746.91
2022-08-06T17:28:50.551Z,99751.52
2022-08-06T17:31:58.075Z,99751.18
2022-08-06T17:33:57.760Z,99756.65
2022-08-06T17:36:38.277Z,99753.16
2022-08-06T17:41:46.513Z,99752.39
2022-08-06T17:42:30.135Z,99747.58
2022-08-06T17:44:18.735Z,99758.27
2022-08-06T17:46:51.718Z,99755.78
2022-08-06T17:49:25.624Z,99755.78
2022-08-06T17:52:00.085Z,99755.81
2022-08-06T17:54:45.335Z,99763.48
2022-08-06T17:57:07.842Z,99760.44
2022-08-06T17:59:44.880Z,99756.04
2022-08-06T18:02:17.115Z,99754.80
2022-08-06T18:04:53.489Z,99758.91
2022-08-06T18:08:11.835Z,99760.34
2022-08-06T18:10:19.858Z,99762.22
2022-08-06T18:12:53.976Z,99761.34
2022-08-06T18:15:40.287Z,99764.55
2022-08-06T18:18:09.701Z,99758.81
2022-08-06T18:20:38.750Z,99765.61
2022-08-06T18:23:20.742Z,99770.09
2022-08-06T18:25:56.983Z,99769.28
2022-08-06T18:28:31.752Z,99765.26
2022-08-06T18:30:56.217Z,99764.79
2022-08-06T18:33:31.283Z,99770.13
2022-08-06T18:36:06.725Z,99767.94
2022-08-06T18:38:39.758Z,99766.66
2022-08-06T18:41:15.815Z,99765.34
2022-08-06T18:43:58.042Z,99768.11
2022-08-06T18:46:56.739Z,99768.64
2022-08-06T18:48:58.745Z,99769.19
2022-08-06T18:51:34.165Z,99770.14
2022-08-06T18:54:11.223Z,99780.08
2022-08-06T18:56:46.098Z,99774.36
2022-08-06T18:59:26.069Z,99776.73
2022-08-06T19:01:54.386Z,99783.54
2022-08-06T19:04:29.157Z,99771.13
2022-08-06T19:07:08.720Z,99772.59
2022-08-06T19:09:41.883Z,99772.72
2022-08-06T19:12:20.713Z,99768.78
2022-08-06T19:14:51.746Z,99775.61
2022-08-06T19:18:09.744Z,99773.91
2022-08-06T19:20:20.334Z,99772.66
2022-08-06T19:22:35.185Z,99769.20
2022-08-06T19:25:11.114Z,99764.81
2022-08-06T19:28:30.408Z,99772.05
2022-08-06T19:30:27.560Z,99772.61
2022-08-06T19:32:53.514Z,99774.49
2022-08-06T19:36:04.410Z,99772.81
2022-08-06T19:38:05.856Z,99778.23
2022-08-06T19:40:53.041Z,99774.77
2022-08-06T19:44:27.766Z,99778.41
2022-08-06T19:46:25.560Z,99777.22
2022-08-06T19:48:38.570Z,99782.64
2022-08-06T19:52:01.458Z,99784.50
2022-08-06T19:53:54.193Z,99780.61
2022-08-06T19:56:20.610Z,99782.03
2022-08-06T20:00:53.367Z,99789.65
2022-08-06T20:01:35.986Z,99782.16
2022-08-06T20:04:02.477Z,99793.32
2022-08-06T20:07:01.291Z,99793.80
2022-08-06T20:09:29.682Z,99790.73
2022-08-06T20:12:03.972Z,99789.91
2022-08-06T20:14:22.030Z,99789.96
2022-08-06T20:16:56.398Z,99791.75
2022-08-06T20:20:05.820Z,99794.45
2022-08-06T20:22:04.073Z,99800.30
2022-08-06T20:24:37.171Z,99796.77
2022-08-06T20:27:11.528Z,99794.12
2022-08-06T20:30:04.818Z,99798.14
2022-08-06T20:32:20.679Z,99798.16
2022-08-06T20:34:55.707Z,99795.05
2022-08-06T20:37:43.942Z,99793.73
2022-08-06T20:40:06.201Z,99784.41
2022-08-06T20:42:42.300Z,99794.21
2022-08-06T20:45:23.768Z,99787.55
2022-08-06T20:47:51.756Z,99791.16
2022-08-06T20:50:28.138Z,99789.39
2022-08-06T20:53:02.136Z,99784.96
2022-08-06T20:55:41.731Z,99793.00
2022-08-06T20:58:12.690Z,99788.14
2022-08-06T21:00:46.000Z,99786.41
2022-08-06T21:05:11.478Z,99795.77
2022-08-06T21:05:54.297Z,99799.79
2022-08-06T21:08:29.975Z,99795.81
2022-08-06T21:11:02.011Z,99795.83
2022-08-06T21:13:35.745Z,99794.52
2022-08-06T21:16:14.870Z,99795.89
2022-08-06T21:18:47.866Z,99791.95
2022-08-06T21:21:21.982Z,99791.95
2022-08-06T21:23:57.269Z,99791.09
2022-08-06T21:26:35.312Z,99787.13
2022-08-06T21:29:14.366Z,99787.13
2022-08-06T21:31:47.146Z,99783.59
2022-08-06T21:34:17.684Z,99786.28
2022-08-06T21:36:52.468Z,99783.62
2022-08-06T21:39:52.690Z,99773.44
2022-08-06T21:42:08.068Z,99773.44
2022-08-06T21:44:38.163Z,99777.43
2022-08-06T21:47:13.076Z,99777.43
2022-08-06T21:50:00.654Z,99779.64
2022-08-06T21:52:28.243Z,99774.32
2022-08-06T21:54:58.371Z,99775.20
2022-08-06T21:57:45.505Z,99773.00
2022-08-06T22:00:12.791Z,99776.99
2022-08-06T22:02:44.886Z,99776.99
2022-08-06T22:06:16.753Z,99775.21
2022-08-06T22:08:07.129Z,99775.21
2022-08-06T22:10:32.632Z,99774.33
2022-08-06T22:13:12.502Z,99769.45
2022-08-06T22:15:45.965Z,99772.13
2022-08-06T22:18:16.976Z,99767.22
2022-08-06T22:20:49.091Z,99754.37
2022-08-06T22:23:22.566Z,99761.95
2022-08-06T22:25:57.312Z,99759.28
2022-08-06T22:28:34.198Z,99761.95
2022-08-06T22:31:08.099Z,99765.51
2022-08-06T22:33:45.832Z,99764.64
2022-08-06T22:36:14.628Z,99763.33
2022-08-06T22:38:47.457Z,99763.33
2022-08-06T22:41:20.767Z,99759.75
2022-08-06T22:43:57.177Z,99762.42
2022-08-06T22:46:29.576Z,99756.67
2022-08-06T22:49:02.282Z,99761.09
2022-08-06T22:51:50.661Z,99761.09
2022-08-06T22:54:28.171Z,99762.42
2022-08-06T22:57:05.247Z,99760.67
2022-08-06T22:59:32.149Z,99758.00
2022-08-06T23:02:06.785Z,99763.34
2022-08-06T23:04:31.297Z,99757.56
2022-08-06T23:07:09.831Z,99760.23
2022-08-06T23:09:41.583Z,99759.36
2022-08-06T23:12:16.687Z,99758.05
2022-08-06T23:14:50.537Z,99756.27
2022-08-06T23:17:24.300Z,99750.95
2022-08-06T23:19:58.302Z,99754.52
2022-08-06T23:22:31.058Z,99753.66
2022-08-06T23:25:59.185Z,99749.66
2022-08-06T23:27:46.945Z,99751.00
2022-08-06T23:30:19.759Z,99759.42
2022-08-06T23:32:49.761Z,99759.42
2022-08-06T23:35:36.878Z,99751.89
2022-08-06T23:38:05.545Z,99757.20
2022-08-06T23:40:32.593Z,99762.52
2022-08-06T23:43:07.494Z,99762.11
2022-08-06T23:45:40.591Z,99760.77
2022-08-06T23:48:13.785Z,99759.45
2022-08-06T23:50:52.683Z,99764.31
2022-08-06T23:54:06.421Z,99762.98
2022-08-06T23:56:01.630Z,99761.64
2022-08-06T23:58:34.475Z,99764.30
